Time;durP1;ratioP1;P1;durP2;ratioP2;P2;SDS_P1;SDS_P2;PMS_P1;PMS_P2;Temp;Humidity;BMP_temperature;BMP_pressure;BME280_temperature;BME280_humidity;BME280_pressure;Samples;Min_cycle;Max_cycle;Signal;HPM_P1;HPM_P2
2021/11/29 00:02:22;;;;;;;9.27;2.08;;;14.50;99.90;;;;;;5103603;28;20046;-60
2021/11/29 00:04:50;;;;;;;5.72;2.88;;;14.50;99.90;;;;;;5101964;28;20036;-60
2021/11/29 00:07:17;;;;;;;6.32;3.10;;;14.50;99.90;;;;;;5105196;28;20044;-60
2021/11/29 00:09:45;;;;;;;7.97;3.00;;;14.50;99.90;;;;;;5096280;28;20035;-60
2021/11/29 00:12:12;;;;;;;4.93;1.77;;;14.50;99.90;;;;;;5097457;28;20482;-60
2021/11/29 00:14:40;;;;;;;5.38;2.80;;;14.40;99.90;;;;;;5117235;28;20036;-59
2021/11/29 00:17:07;;;;;;;5.07;1.95;;;14.40;99.90;;;;;;5115420;28;20050;-60
2021/11/29 00:19:35;;;;;;;6.43;2.42;;;14.40;99.90;;;;;;5114857;28;20039;-60
2021/11/29 00:22:02;;;;;;;12.27;2.75;;;14.40;99.90;;;;;;5112033;28;20042;-60
2021/11/29 00:24:30;;;;;;;6.82;3.08;;;14.40;99.90;;;;;;5111568;28;20081;-60
2021/11/29 00:26:58;;;;;;;8.18;2.50;;;14.30;99.90;;;;;;5114618;28;20050;-60
2021/11/29 00:29:25;;;;;;;3.65;2.42;;;14.30;99.90;;;;;;5114780;28;20498;-59
2021/11/29 00:31:53;;;;;;;16.27;2.97;;;14.30;99.90;;;;;;5100964;28;20028;-59
2021/11/29 00:34:21;;;;;;;3.83;2.30;;;14.30;99.90;;;;;;5098898;28;20032;-60
2021/11/29 00:36:49;;;;;;;3.58;2.30;;;14.30;99.90;;;;;;5099210;28;20040;-60
2021/11/29 00:39:17;;;;;;;4.13;1.80;;;14.20;99.90;;;;;;5099010;28;20042;-60
2021/11/29 00:41:45;;;;;;;6.30;3.15;;;14.20;99.90;;;;;;5099349;28;20376;-60
2021/11/29 00:44:13;;;;;;;8.95;2.70;;;14.20;99.90;;;;;;5117557;28;20508;-60
2021/11/29 00:46:41;;;;;;;3.95;1.50;;;14.20;99.90;;;;;;5116501;28;20074;-60
2021/11/29 00:49:08;;;;;;;3.63;1.60;;;14.20;99.90;;;;;;5098056;28;20091;-60
2021/11/29 00:51:36;;;;;;;3.90;2.08;;;14.10;99.90;;;;;;5099109;28;20036;-60
2021/11/29 00:54:04;;;;;;;6.15;2.03;;;14.10;99.90;;;;;;5098560;28;20052;-60
2021/11/29 00:56:32;;;;;;;5.22;2.00;;;14.00;99.90;;;;;;5117132;28;20114;-60
2021/11/29 00:58:59;;;;;;;2.97;1.40;;;14.00;99.90;;;;;;5116957;28;20081;-60
2021/11/29 01:01:27;;;;;;;3.63;2.38;;;14.00;99.90;;;;;;5099138;28;20371;-60
2021/11/29 01:03:55;;;;;;;4.30;1.63;;;14.00;99.90;;;;;;5117425;28;20035;-60
2021/11/29 01:06:22;;;;;;;3.20;1.35;;;14.00;99.90;;;;;;5098786;28;20377;-60
2021/11/29 01:08:50;;;;;;;4.00;1.33;;;14.00;99.90;;;;;;5098912;28;20124;-59
2021/11/29 01:11:17;;;;;;;7.95;2.20;;;13.90;99.90;;;;;;5116823;28;20088;-60
2021/11/29 01:13:45;;;;;;;5.22;1.90;;;13.90;99.90;;;;;;5116662;28;20034;-60
2021/11/29 01:16:12;;;;;;;4.68;1.70;;;13.90;99.90;;;;;;5116188;28;20122;-60
2021/11/29 01:18:40;;;;;;;6.90;2.58;;;13.90;99.90;;;;;;5116447;28;20554;-60
2021/11/29 01:21:08;;;;;;;6.70;2.00;;;13.90;99.90;;;;;;5098401;28;20436;-60
2021/11/29 01:23:35;;;;;;;4.60;1.60;;;13.90;99.90;;;;;;5098380;28;20040;-60
2021/11/29 01:26:03;;;;;;;4.05;1.50;;;13.90;99.90;;;;;;5098497;28;20039;-60
2021/11/29 01:28:31;;;;;;;2.78;2.17;;;13.80;99.90;;;;;;5116412;28;20043;-60
2021/11/29 01:30:58;;;;;;;2.13;1.30;;;13.80;99.90;;;;;;5081323;28;20568;-60
2021/11/29 01:33:26;;;;;;;2.42;1.30;;;13.70;99.90;;;;;;5098067;28;20071;-60
2021/11/29 01:35:53;;;;;;;4.18;1.85;;;13.70;99.90;;;;;;5116579;28;20109;-60
2021/11/29 01:38:21;;;;;;;3.80;1.35;;;13.60;99.90;;;;;;5081331;28;20121;-60
2021/11/29 01:40:49;;;;;;;1.50;1.08;;;13.60;99.90;;;;;;5116267;28;20538;-60
2021/11/29 01:43:19;;;;;;;2.90;1.58;;;13.60;99.90;;;;;;5098254;28;20039;-60
2021/11/29 01:45:50;;;;;;;1.25;0.88;;;13.50;99.90;;;;;;5064524;28;20052;-59
2021/11/29 01:48:18;;;;;;;2.45;1.13;;;13.50;99.90;;;;;;5116200;28;20043;-60
2021/11/29 01:50:49;;;;;;;2.05;0.77;;;13.50;99.90;;;;;;5116314;28;20059;-60
2021/11/29 01:53:21;;;;;;;2.70;1.58;;;13.50;99.90;;;;;;5098172;28;20059;-60
2021/11/29 01:55:50;;;;;;;2.55;1.27;;;13.40;99.90;;;;;;5098076;28;20043;-60
2021/11/29 01:58:20;;;;;;;1.05;0.73;;;13.40;99.90;;;;;;5097730;28;20075;-60
2021/11/29 02:00:51;;;;;;;2.10;1.10;;;13.40;99.90;;;;;;5097947;28;20044;-59
2021/11/29 02:03:23;;;;;;;3.00;1.02;;;13.40;99.90;;;;;;5097721;28;20046;-60
2021/11/29 02:05:52;;;;;;;2.38;1.10;;;13.40;99.90;;;;;;5097966;28;20042;-60
2021/11/29 02:08:20;;;;;;;2.33;0.90;;;13.40;99.90;;;;;;5115614;28;20036;-59
2021/11/29 02:10:48;;;;;;;2.88;0.98;;;13.40;99.90;;;;;;5097501;28;20073;-60
2021/11/29 02:13:18;;;;;;;0.93;0.73;;;13.40;99.90;;;;;;5097418;28;20080;-60
2021/11/29 02:15:51;;;;;;;1.20;0.80;;;13.40;99.90;;;;;;5115904;28;20379;-59
2021/11/29 02:18:30;;;;;;;1.38;0.95;;;13.40;99.90;;;;;;5115556;28;20426;-60
2021/11/29 02:21:05;;;;;;;3.80;1.75;;;13.40;99.90;;;;;;5097208;28;20043;-60
2021/11/29 02:23:39;;;;;;;1.05;0.82;;;13.40;99.90;;;;;;5115836;28;20548;-60
2021/11/29 02:26:07;;;;;;;1.00;0.82;;;13.40;99.90;;;;;;5115634;28;20035;-60
2021/11/29 02:28:38;;;;;;;1.10;0.68;;;13.40;99.90;;;;;;5096324;28;20381;-59
2021/11/29 02:31:09;;;;;;;2.15;0.85;;;13.40;99.90;;;;;;5115423;28;20043;-60
2021/11/29 02:33:37;;;;;;;1.92;0.80;;;13.40;99.90;;;;;;5115285;28;20031;-60
2021/11/29 02:36:05;;;;;;;2.25;0.95;;;13.40;99.90;;;;;;5097253;28;20047;-60
2021/11/29 02:38:33;;;;;;;1.83;0.90;;;13.50;99.90;;;;;;5115069;28;20488;-60
2021/11/29 02:41:01;;;;;;;3.03;1.17;;;13.40;99.90;;;;;;5114766;28;20437;-59
2021/11/29 02:43:29;;;;;;;3.47;1.42;;;13.40;99.90;;;;;;5096875;28;20032;-60
2021/11/29 02:45:56;;;;;;;1.50;1.08;;;13.40;99.90;;;;;;5096773;28;20118;-59
2021/11/29 02:48:46;;;;;;;2.60;1.08;;;13.40;99.90;;;;;;5096853;28;20036;-60
2021/11/29 02:51:23;;;;;;;2.20;1.00;;;13.40;99.90;;;;;;5080393;28;20552;-60
2021/11/29 02:53:52;;;;;;;;;;;13.40;99.90;;;;;;5080802;28;20036;-59
2021/11/29 02:56:20;;;;;;;1.95;1.13;;;13.30;99.90;;;;;;5096610;28;20017;-60
2021/11/29 02:58:47;;;;;;;1.73;1.00;;;13.30;99.90;;;;;;5114874;28;20043;-59
2021/11/29 03:01:15;;;;;;;3.53;1.13;;;13.30;99.90;;;;;;5114596;28;20043;-60
2021/11/29 03:03:51;;;;;;;3.00;1.30;;;13.30;99.90;;;;;;5114867;28;20351;-60
2021/11/29 03:06:20;;;;;;;3.58;1.65;;;13.30;99.90;;;;;;5096560;28;20148;-59
2021/11/29 03:08:48;;;;;;;2.60;0.82;;;13.30;99.90;;;;;;5096368;28;20447;-60
2021/11/29 03:11:17;;;;;;;2.75;1.30;;;13.40;99.90;;;;;;5114511;28;20039;-60
2021/11/29 03:13:45;;;;;;;4.10;0.95;;;13.40;99.90;;;;;;5114482;28;20031;-60
2021/11/29 03:16:13;;;;;;;3.30;1.20;;;13.40;99.90;;;;;;5114598;28;20366;-59
2021/11/29 03:18:43;;;;;;;3.40;1.08;;;13.40;99.90;;;;;;5096316;28;20058;-60
2021/11/29 03:21:15;;;;;;;5.00;1.75;;;13.40;99.90;;;;;;5114412;28;20063;-59
2021/11/29 03:23:45;;;;;;;3.28;1.17;;;13.30;99.90;;;;;;5096241;28;20053;-59
2021/11/29 03:26:17;;;;;;;2.40;1.08;;;13.30;99.90;;;;;;5096150;28;20118;-59
2021/11/29 03:28:54;;;;;;;1.65;0.75;;;13.20;99.90;;;;;;5095801;28;20556;-60
2021/11/29 03:31:23;;;;;;;;;;;13.20;99.90;;;;;;5096716;28;20458;-60
2021/11/29 03:33:55;;;;;;;1.50;1.00;;;13.20;99.90;;;;;;5096157;28;19915;-59
2021/11/29 03:36:23;;;;;;;2.15;0.90;;;13.20;99.90;;;;;;5114066;28;20118;-59
2021/11/29 03:38:51;;;;;;;5.82;1.48;;;13.10;99.90;;;;;;5105617;28;20063;-59
2021/11/29 03:41:19;;;;;;;1.55;0.75;;;13.20;99.90;;;;;;5095628;28;20072;-60
2021/11/29 03:43:47;;;;;;;3.03;0.85;;;13.20;99.90;;;;;;5079451;28;20139;-59
2021/11/29 03:46:15;;;;;;;0.63;0.50;;;13.20;99.90;;;;;;5095895;28;20046;-59
2021/11/29 03:48:43;;;;;;;3.50;1.20;;;13.20;99.90;;;;;;5096089;28;20043;-59
2021/11/29 03:51:11;;;;;;;1.00;0.70;;;13.20;99.90;;;;;;5113983;28;20127;-59
2021/11/29 03:53:38;;;;;;;3.65;0.80;;;13.20;99.90;;;;;;5095952;28;20054;-59
2021/11/29 03:56:06;;;;;;;1.65;1.15;;;13.10;99.90;;;;;;5113916;28;20123;-60
2021/11/29 03:58:34;;;;;;;1.02;0.60;;;13.20;99.90;;;;;;5095752;28;20114;-59
2021/11/29 04:01:02;;;;;;;7.30;1.80;;;13.20;99.90;;;;;;5114220;28;20088;-59
2021/11/29 04:03:32;;;;;;;2.70;0.80;;;13.20;99.90;;;;;;5095899;28;20046;-60
2021/11/29 04:05:59;;;;;;;7.78;1.27;;;13.20;99.90;;;;;;5113847;28;20042;-59
2021/11/29 04:08:27;;;;;;;1.70;1.20;;;13.10;99.90;;;;;;5095949;28;20050;-59
2021/11/29 04:10:54;;;;;;;9.25;1.40;;;13.10;99.90;;;;;;5113868;28;20376;-59
2021/11/29 04:13:22;;;;;;;1.45;0.85;;;13.10;99.90;;;;;;5095969;28;20039;-60
2021/11/29 04:15:49;;;;;;;3.42;0.93;;;13.10;99.90;;;;;;5113840;28;20480;-59
2021/11/29 04:18:17;;;;;;;2.00;0.80;;;13.00;99.90;;;;;;5095107;28;20170;-59
2021/11/29 04:20:45;;;;;;;3.72;1.10;;;13.00;99.90;;;;;;5095883;28;20062;-59
2021/11/29 04:23:12;;;;;;;3.85;1.05;;;13.00;99.90;;;;;;5113830;28;20530;-60
2021/11/29 04:25:48;;;;;;;3.08;0.90;;;13.00;99.90;;;;;;5113720;28;20031;-59
2021/11/29 04:28:16;;;;;;;1.50;0.68;;;13.00;99.90;;;;;;5113722;28;20093;-60
2021/11/29 04:30:43;;;;;;;2.65;1.10;;;12.90;99.90;;;;;;5078393;28;20044;-59
2021/11/29 04:33:11;;;;;;;2.40;0.98;;;12.90;99.90;;;;;;5113727;28;20067;-60
2021/11/29 04:35:39;;;;;;;4.30;1.00;;;12.90;99.90;;;;;;5113566;28;20118;-59
2021/11/29 04:38:06;;;;;;;2.58;0.80;;;12.80;99.90;;;;;;5113572;28;20122;-60
2021/11/29 04:40:34;;;;;;;3.78;1.23;;;12.80;99.90;;;;;;5113904;28;20040;-59
2021/11/29 04:43:02;;;;;;;1.60;1.00;;;12.80;99.90;;;;;;5095513;28;20046;-59
2021/11/29 04:45:30;;;;;;;5.38;1.77;;;12.80;99.90;;;;;;5095373;28;20449;-59
2021/11/29 04:47:58;;;;;;;1.05;0.75;;;12.80;99.90;;;;;;5113433;28;20042;-60
2021/11/29 04:50:26;;;;;;;4.55;1.10;;;12.80;99.90;;;;;;5113425;28;20122;-59
2021/11/29 04:52:54;;;;;;;2.97;1.00;;;12.70;99.90;;;;;;5080717;28;20046;-59
2021/11/29 04:55:22;;;;;;;1.58;0.65;;;12.70;99.90;;;;;;5117075;28;20050;-59
2021/11/29 04:57:49;;;;;;;2.65;1.52;;;12.60;99.90;;;;;;5099116;28;20427;-60
2021/11/29 05:00:19;;;;;;;1.75;0.95;;;12.60;99.90;;;;;;5116964;28;20042;-59
2021/11/29 05:02:48;;;;;;;2.72;0.77;;;12.40;99.90;;;;;;5117012;28;20043;-59
2021/11/29 05:05:16;;;;;;;1.25;1.15;;;12.40;99.90;;;;;;5099083;28;20461;-60
2021/11/29 05:07:43;;;;;;;2.15;0.82;;;12.40;99.90;;;;;;5116914;28;20122;-59
2021/11/29 05:10:12;;;;;;;2.40;0.77;;;12.40;99.90;;;;;;5116802;28;20126;-60
2021/11/29 05:12:39;;;;;;;1.55;0.75;;;12.40;99.90;;;;;;5098761;28;20535;-60
2021/11/29 05:15:08;;;;;;;2.47;1.27;;;12.40;99.90;;;;;;5116685;28;20081;-59
2021/11/29 05:17:35;;;;;;;1.83;1.00;;;12.40;99.90;;;;;;5116696;28;20042;-59
2021/11/29 05:20:04;;;;;;;6.03;1.38;;;12.40;99.90;;;;;;5116573;28;20032;-59
2021/11/29 05:22:32;;;;;;;4.20;0.80;;;12.50;99.90;;;;;;5098664;28;20484;-59
2021/11/29 05:24:59;;;;;;;1.80;1.15;;;12.50;99.90;;;;;;5098422;28;20122;-59
2021/11/29 05:27:27;;;;;;;2.38;1.17;;;12.50;99.90;;;;;;5081184;28;20423;-60
2021/11/29 05:29:55;;;;;;;1.10;0.68;;;12.50;99.90;;;;;;5116406;28;20043;-60
2021/11/29 05:32:23;;;;;;;1.13;0.68;;;12.50;99.90;;;;;;5099356;28;20118;-60
2021/11/29 05:34:51;;;;;;;3.42;1.15;;;12.50;99.90;;;;;;5112457;28;20035;-59
2021/11/29 05:37:22;;;;;;;1.45;0.73;;;12.50;99.90;;;;;;5105765;28;20090;-60
2021/11/29 05:39:50;;;;;;;1.40;0.82;;;12.50;99.90;;;;;;5111913;28;20043;-59
2021/11/29 05:42:22;;;;;;;2.90;0.88;;;12.50;99.90;;;;;;5119784;27;20054;-60
2021/11/29 05:44:50;;;;;;;1.83;0.90;;;12.50;99.90;;;;;;5095551;28;20085;-60
2021/11/29 05:47:19;;;;;;;2.90;0.98;;;12.40;99.90;;;;;;5111032;28;20123;-59
2021/11/29 05:49:48;;;;;;;1.58;0.77;;;12.30;99.90;;;;;;5092965;28;20031;-59
2021/11/29 05:52:15;;;;;;;1.50;0.70;;;12.30;99.90;;;;;;5106058;28;20044;-59
2021/11/29 05:54:43;;;;;;;1.20;0.70;;;12.20;99.90;;;;;;5092375;28;20105;-60
2021/11/29 05:57:14;;;;;;;1.80;0.82;;;12.20;99.90;;;;;;5119464;27;20043;-60
2021/11/29 05:59:42;;;;;;;3.00;0.73;;;12.10;99.90;;;;;;5113400;28;20031;-59
2021/11/29 06:02:10;;;;;;;2.35;0.70;;;12.10;99.90;;;;;;5112499;28;20040;-59
2021/11/29 06:04:37;;;;;;;0.68;0.60;;;12.10;99.90;;;;;;5079223;28;20032;-60
2021/11/29 06:07:05;;;;;;;0.85;0.55;;;12.00;99.90;;;;;;5110557;27;20067;-59
2021/11/29 06:09:32;;;;;;;1.00;0.50;;;12.00;99.90;;;;;;5135801;27;20146;-60
2021/11/29 06:12:00;;;;;;;2.25;1.30;;;12.00;99.90;;;;;;5084359;27;20224;-59
2021/11/29 06:14:27;;;;;;;1.42;0.80;;;12.00;99.90;;;;;;5135980;27;20046;-60
2021/11/29 06:16:55;;;;;;;1.42;1.05;;;12.00;99.90;;;;;;5117513;27;20377;-59
2021/11/29 06:19:23;;;;;;;1.90;1.27;;;12.00;99.90;;;;;;5117827;27;20130;-59
2021/11/29 06:21:51;;;;;;;1.42;0.77;;;12.00;99.90;;;;;;5135807;27;20092;-60
2021/11/29 06:24:19;;;;;;;2.70;0.85;;;12.00;99.90;;;;;;5117713;27;20130;-59
2021/11/29 06:26:46;;;;;;;3.15;0.93;;;12.00;99.90;;;;;;5135735;27;20043;-59
2021/11/29 06:29:14;;;;;;;4.72;1.00;;;11.90;99.90;;;;;;5136117;27;20376;-60
2021/11/29 06:31:42;;;;;;;1.35;0.90;;;12.00;99.90;;;;;;5135850;27;20046;-60
2021/11/29 06:34:09;;;;;;;5.28;1.80;;;11.80;99.90;;;;;;5135604;27;20031;-60
2021/11/29 06:36:37;;;;;;;3.00;1.15;;;11.80;99.90;;;;;;5117426;27;20039;-59
2021/11/29 06:39:05;;;;;;;1.45;0.90;;;11.70;99.90;;;;;;5135425;27;20035;-60
2021/11/29 06:41:32;;;;;;;3.63;1.20;;;11.60;99.90;;;;;;5135232;27;20043;-60
2021/11/29 06:44:00;;;;;;;1.90;1.30;;;11.60;99.90;;;;;;5117713;27;20445;-60
2021/11/29 06:46:28;;;;;;;1.48;0.98;;;11.70;99.90;;;;;;5116549;27;20043;-60
2021/11/29 06:48:55;;;;;;;1.77;1.15;;;11.70;99.90;;;;;;5117236;27;20039;-60
2021/11/29 06:51:26;;;;;;;1.60;1.20;;;11.70;99.90;;;;;;5135408;27;20030;-60
2021/11/29 06:53:54;;;;;;;4.18;2.60;;;11.70;99.90;;;;;;5135435;27;20100;-60
2021/11/29 06:56:21;;;;;;;3.85;2.17;;;11.70;99.90;;;;;;5116964;27;20548;-60
2021/11/29 06:58:49;;;;;;;1.70;1.08;;;11.70;99.90;;;;;;5135252;27;20035;-60
2021/11/29 07:01:16;;;;;;;1.23;0.88;;;11.60;99.90;;;;;;5135135;27;20122;-60
2021/11/29 07:03:45;;;;;;;2.10;0.90;;;11.80;99.90;;;;;;5116820;27;20496;-60
2021/11/29 07:06:13;;;;;;;1.45;0.82;;;12.10;99.90;;;;;;5134970;27;20035;-60
2021/11/29 07:08:40;;;;;;;3.40;1.25;;;12.50;99.90;;;;;;5135035;27;20117;-60
2021/11/29 07:11:08;;;;;;;3.03;0.98;;;13.40;99.90;;;;;;5135140;27;20037;-60
2021/11/29 07:13:36;;;;;;;1.45;1.08;;;14.70;99.90;;;;;;5116106;27;20130;-60
2021/11/29 07:16:04;;;;;;;4.35;1.10;;;15.90;99.90;;;;;;5116421;27;20384;-60
2021/11/29 07:18:32;;;;;;;1.38;1.00;;;16.50;99.90;;;;;;5116535;27;20373;-60
2021/11/29 07:20:59;;;;;;;1.52;0.75;;;16.30;99.90;;;;;;5134785;27;20122;-60
2021/11/29 07:23:27;;;;;;;1.65;0.70;;;16.20;99.90;;;;;;5135141;27;20438;-60
2021/11/29 07:25:54;;;;;;;3.03;1.63;;;16.50;99.90;;;;;;5134879;27;20372;-60
2021/11/29 07:28:22;;;;;;;1.67;1.00;;;16.60;99.90;;;;;;5116493;27;20031;-60
2021/11/29 07:30:50;;;;;;;1.13;0.65;;;16.70;99.90;;;;;;5116507;27;20050;-61
2021/11/29 07:33:18;;;;;;;0.70;0.70;;;17.10;99.90;;;;;;5135048;27;20072;-60
2021/11/29 07:35:46;;;;;;;0.85;0.68;;;17.60;99.90;;;;;;5116512;27;20500;-60
2021/11/29 07:38:14;;;;;;;2.45;1.60;;;18.20;99.90;;;;;;5134755;27;20067;-60
2021/11/29 07:40:41;;;;;;;1.50;1.00;;;18.70;99.90;;;;;;5116054;27;20043;-60
2021/11/29 07:43:10;;;;;;;0.77;0.60;;;19.10;98.80;;;;;;5134726;27;20453;-61
2021/11/29 07:45:39;;;;;;;1.25;0.70;;;19.10;97.60;;;;;;5116405;28;20106;-60
2021/11/29 07:48:07;;;;;;;2.60;0.98;;;19.00;97.70;;;;;;5116084;28;20545;-60
2021/11/29 07:50:35;;;;;;;0.77;0.50;;;19.10;98.10;;;;;;5134565;28;20396;-60
2021/11/29 07:53:04;;;;;;;1.50;0.70;;;19.30;98.00;;;;;;5116299;28;20031;-60
2021/11/29 07:55:31;;;;;;;1.20;0.70;;;19.40;97.90;;;;;;5116546;28;20500;-60
2021/11/29 07:58:00;;;;;;;5.63;1.60;;;19.60;97.50;;;;;;5099084;28;20146;-60
2021/11/29 08:00:31;;;;;;;2.20;1.13;;;19.80;97.60;;;;;;5099306;28;20038;-60
2021/11/29 08:03:01;;;;;;;2.30;1.10;;;19.70;97.00;;;;;;5134467;28;20463;-60
2021/11/29 08:05:30;;;;;;;2.10;0.98;;;19.30;97.30;;;;;;5134574;28;20043;-60
2021/11/29 08:08:00;;;;;;;3.47;0.93;;;18.60;97.60;;;;;;5134614;28;20481;-60
2021/11/29 08:10:29;;;;;;;1.73;0.90;;;17.60;98.50;;;;;;5134369;28;20084;-60
2021/11/29 08:12:58;;;;;;;1.23;1.00;;;17.10;99.60;;;;;;5116027;28;20043;-60
2021/11/29 08:15:26;;;;;;;2.08;0.90;;;16.50;99.90;;;;;;5115996;28;20047;-60
2021/11/29 08:17:53;;;;;;;1.55;1.20;;;15.90;99.90;;;;;;5134192;28;20122;-60
2021/11/29 08:20:24;;;;;;;1.95;1.00;;;15.40;99.90;;;;;;5116035;28;20047;-60
2021/11/29 08:22:52;;;;;;;2.58;1.83;;;15.20;99.90;;;;;;5126054;28;20031;-60
2021/11/29 08:25:20;;;;;;;2.85;1.20;;;15.10;99.90;;;;;;5134201;28;20035;-60
2021/11/29 08:27:48;;;;;;;3.03;1.40;;;14.90;99.90;;;;;;5136452;27;20504;-60
2021/11/29 08:30:18;;;;;;;3.28;1.55;;;14.70;99.90;;;;;;5137972;27;20064;-60
2021/11/29 08:32:46;;;;;;;2.88;1.77;;;14.60;99.90;;;;;;5120149;27;20031;-61
2021/11/29 08:35:16;;;;;;;4.43;1.83;;;14.50;99.90;;;;;;5102937;27;20077;-60
2021/11/29 08:37:49;;;;;;;4.72;1.92;;;14.30;99.90;;;;;;5138161;27;20118;-60
2021/11/29 08:40:19;;;;;;;3.65;1.58;;;14.20;99.90;;;;;;5102688;27;20507;-60
2021/11/29 08:42:47;;;;;;;2.40;1.55;;;14.00;99.90;;;;;;5102454;27;20051;-60
2021/11/29 08:45:15;;;;;;;1.52;1.15;;;13.80;99.90;;;;;;5118975;27;20035;-60
2021/11/29 08:47:43;;;;;;;2.03;1.17;;;13.60;99.90;;;;;;5102312;27;20039;-60
2021/11/29 08:50:11;;;;;;;1.80;0.98;;;13.60;99.90;;;;;;5119482;27;20126;-60
2021/11/29 08:52:55;;;;;;;2.20;1.10;;;13.60;99.90;;;;;;5137771;27;20463;-60
2021/11/29 08:55:23;;;;;;;2.00;1.00;;;13.70;99.90;;;;;;5119347;27;20035;-60
2021/11/29 08:57:51;;;;;;;3.67;1.20;;;13.60;99.90;;;;;;5119457;27;20476;-60
2021/11/29 09:00:19;;;;;;;3.03;1.23;;;13.60;99.90;;;;;;5118935;27;20043;-60
2021/11/29 09:02:47;;;;;;;0.95;0.68;;;13.50;99.90;;;;;;5137638;27;20043;-60
2021/11/29 09:05:18;;;;;;;4.07;1.38;;;13.40;99.90;;;;;;5119841;27;20039;-60
2021/11/29 09:07:46;;;;;;;1.88;1.15;;;13.40;99.90;;;;;;5137408;27;20118;-60
2021/11/29 09:10:14;;;;;;;2.40;1.25;;;13.70;99.90;;;;;;5137550;27;20043;-60
2021/11/29 09:12:42;;;;;;;1.50;0.95;;;13.90;99.90;;;;;;5119371;27;20032;-60
2021/11/29 09:15:13;;;;;;;2.17;1.10;;;14.00;99.90;;;;;;5119107;27;20039;-60
2021/11/29 09:17:40;;;;;;;3.50;1.30;;;14.40;99.90;;;;;;5137155;27;20514;-60
2021/11/29 09:20:10;;;;;;;4.07;1.20;;;14.80;99.90;;;;;;5119292;27;20537;-60
2021/11/29 09:22:40;;;;;;;4.00;1.20;;;15.00;99.90;;;;;;5119024;27;20035;-60
2021/11/29 09:25:09;;;;;;;2.83;1.60;;;15.10;99.90;;;;;;5137175;27;20039;-61
2021/11/29 09:27:37;;;;;;;2.10;1.35;;;15.10;99.90;;;;;;5119234;27;20465;-60
2021/11/29 09:30:07;;;;;;;4.35;1.50;;;15.20;99.90;;;;;;5118736;27;20047;-60
2021/11/29 09:32:38;;;;;;;4.75;1.77;;;15.40;99.90;;;;;;5136890;27;20035;-60
2021/11/29 09:35:09;;;;;;;3.35;1.08;;;15.20;99.90;;;;;;5118992;27;20047;-60
2021/11/29 09:37:38;;;;;;;1.38;0.82;;;15.10;99.90;;;;;;5136497;27;20060;-60
2021/11/29 09:40:10;;;;;;;3.97;1.20;;;15.00;99.90;;;;;;5101454;27;20042;-60
2021/11/29 09:42:39;;;;;;;2.95;1.33;;;14.60;99.90;;;;;;5136696;27;20384;-60
2021/11/29 09:45:11;;;;;;;3.20;1.30;;;14.50;99.90;;;;;;5136800;27;20124;-61
2021/11/29 09:47:39;;;;;;;4.82;1.48;;;14.10;99.90;;;;;;5101520;27;20035;-60
2021/11/29 09:50:08;;;;;;;1.25;0.90;;;14.00;99.90;;;;;;5136639;27;20035;-61
2021/11/29 09:52:35;;;;;;;1.20;0.73;;;14.00;99.90;;;;;;5117773;27;20056;-60
2021/11/29 09:55:05;;;;;;;1.95;0.68;;;13.80;99.90;;;;;;5136665;27;20069;-60
2021/11/29 09:57:34;;;;;;;0.93;0.70;;;13.80;99.90;;;;;;5136751;27;20100;-60
2021/11/29 10:00:03;;;;;;;1.10;0.50;;;13.90;99.90;;;;;;5117998;27;20064;-60
2021/11/29 10:02:30;;;;;;;1.23;0.63;;;13.80;99.90;;;;;;5117931;27;20054;-60
2021/11/29 10:04:58;;;;;;;0.75;0.60;;;13.80;99.90;;;;;;5118160;27;20039;-60
2021/11/29 10:07:37;;;;;;;2.42;0.75;;;13.90;99.90;;;;;;5118190;27;20035;-60
2021/11/29 10:10:12;;;;;;;1.25;0.60;;;14.00;99.90;;;;;;5136231;27;20035;-60
2021/11/29 10:12:40;;;;;;;1.27;0.60;;;14.20;99.90;;;;;;5136117;27;20071;-60
2021/11/29 10:15:18;;;;;;;0.85;0.63;;;14.20;99.90;;;;;;5100859;27;20039;-60
2021/11/29 10:17:47;;;;;;;4.90;1.30;;;14.20;99.90;;;;;;5101001;27;20050;-60
2021/11/29 10:20:31;;;;;;;1.00;0.65;;;14.20;99.90;;;;;;5120258;27;20057;-60
2021/11/29 10:23:07;;;;;;;0.70;0.65;;;14.20;99.90;;;;;;5117669;27;20045;-60
2021/11/29 10:25:42;;;;;;;1.05;0.90;;;14.10;99.90;;;;;;5136032;27;20484;-60
2021/11/29 10:28:32;;;;;;;2.47;1.30;;;13.90;99.90;;;;;;5117778;27;20027;-60
2021/11/29 10:31:20;;;;;;;1.58;0.50;;;14.00;99.90;;;;;;5117776;27;20380;-60
2021/11/29 10:34:09;;;;;;;1.77;0.70;;;13.90;99.90;;;;;;5135230;27;20039;-60
2021/11/29 10:36:42;;;;;;;1.38;0.82;;;13.90;99.90;;;;;;5118214;27;20546;-60
2021/11/29 10:39:13;;;;;;;1.05;0.85;;;13.90;99.90;;;;;;5105619;28;20039;-60
2021/11/29 10:41:44;;;;;;;1.27;0.85;;;13.90;99.90;;;;;;5114388;28;22556;-60
2021/11/29 10:44:18;;;;;;;1.67;0.88;;;13.90;99.90;;;;;;5079026;28;20047;-60
2021/11/29 10:46:51;;;;;;;1.40;0.98;;;13.80;99.90;;;;;;5101875;28;20035;-61
2021/11/29 10:49:24;;;;;;;3.03;0.77;;;13.80;99.90;;;;;;5077910;28;20028;-60
2021/11/29 10:51:54;;;;;;;1.02;0.63;;;13.90;99.90;;;;;;5100943;28;20135;-60
2021/11/29 10:54:24;;;;;;;2.53;1.05;;;14.30;99.90;;;;;;5109987;28;20135;-60
2021/11/29 10:56:55;;;;;;;1.00;0.77;;;14.60;99.90;;;;;;5095667;28;20558;-61
2021/11/29 10:59:26;;;;;;;1.95;0.90;;;14.80;99.90;;;;;;5108834;28;20059;-60
2021/11/29 11:01:59;;;;;;;3.92;1.23;;;14.90;99.90;;;;;;5099799;28;20084;-60
2021/11/29 11:04:32;;;;;;;1.30;0.70;;;15.00;99.90;;;;;;5105236;28;20127;-60
2021/11/29 11:07:06;;;;;;;2.53;0.90;;;15.10;99.90;;;;;;5091864;28;20363;-60
2021/11/29 11:09:48;;;;;;;10.60;1.35;;;15.20;99.90;;;;;;5096862;28;20350;-60
2021/11/29 11:12:16;;;;;;;1.65;0.90;;;15.30;99.90;;;;;;5091597;28;20109;-60
2021/11/29 11:14:56;;;;;;;3.50;1.23;;;15.40;99.90;;;;;;5088197;28;20449;-61
2021/11/29 11:17:31;;;;;;;1.70;0.80;;;15.30;99.70;;;;;;5103807;28;20043;-60
2021/11/29 11:20:02;;;;;;;2.13;0.95;;;15.20;99.60;;;;;;5101462;28;20040;-60
2021/11/29 11:22:35;;;;;;;1.52;0.80;;;15.10;99.20;;;;;;5101896;28;20040;-60
2021/11/29 11:25:15;;;;;;;0.85;0.65;;;15.10;98.70;;;;;;5068661;28;20423;-60
2021/11/29 11:28:05;;;;;;;3.10;1.25;;;14.90;99.30;;;;;;5111554;28;20032;-60
2021/11/29 11:30:37;;;;;;;2.45;1.17;;;14.90;99.90;;;;;;5075024;28;20047;-60
2021/11/29 11:33:11;;;;;;;2.20;1.20;;;14.90;99.90;;;;;;5103863;28;20127;-60
2021/11/29 11:35:44;;;;;;;2.00;1.30;;;14.90;99.90;;;;;;5107071;28;20526;-60
2021/11/29 11:38:25;;;;;;;3.20;1.40;;;14.80;99.90;;;;;;5094930;28;20051;-60
2021/11/29 11:40:55;;;;;;;2.30;1.30;;;14.70;99.90;;;;;;5108251;28;20489;-60
2021/11/29 11:43:25;;;;;;;2.00;1.10;;;14.70;99.80;;;;;;5108690;28;20036;-60
2021/11/29 11:45:53;;;;;;;1.92;1.50;;;14.70;99.90;;;;;;5105425;28;20032;-60
2021/11/29 11:48:21;;;;;;;0.55;0.55;;;14.50;99.90;;;;;;5092140;28;20038;-60
2021/11/29 11:50:55;;;;;;;4.13;1.75;;;14.40;99.90;;;;;;5110048;28;20127;-60
2021/11/29 11:53:23;;;;;;;3.95;1.90;;;14.30;99.90;;;;;;5088479;28;20512;-60
2021/11/29 11:55:52;;;;;;;2.33;1.30;;;14.20;99.90;;;;;;5094466;28;20074;-60
2021/11/29 11:58:31;;;;;;;2.50;1.13;;;14.10;99.90;;;;;;5094443;28;20039;-60
2021/11/29 12:01:01;;;;;;;0.98;0.68;;;14.10;99.90;;;;;;5093201;28;20032;-60
2021/11/29 12:03:29;;;;;;;2.28;1.60;;;14.20;99.90;;;;;;5094864;28;20047;-60
2021/11/29 12:06:05;;;;;;;1.88;1.02;;;14.30;99.90;;;;;;5095352;28;20040;-60
2021/11/29 12:08:32;;;;;;;2.25;1.30;;;14.50;99.90;;;;;;5093522;28;20031;-60
2021/11/29 12:11:03;;;;;;;2.15;1.00;;;14.60;99.90;;;;;;5098939;28;20085;-60
2021/11/29 12:13:43;;;;;;;1.20;1.00;;;14.60;99.90;;;;;;5098254;28;20031;-60
2021/11/29 12:16:11;;;;;;;3.95;1.95;;;14.50;99.90;;;;;;5099051;28;20181;-60
2021/11/29 12:18:39;;;;;;;4.75;2.17;;;14.50;99.90;;;;;;5099631;28;20428;-60
2021/11/29 12:21:16;;;;;;;5.88;1.38;;;14.50;99.90;;;;;;5117932;28;20085;-60
2021/11/29 12:24:11;;;;;;;3.53;1.10;;;14.30;99.90;;;;;;5099697;28;20419;-60
2021/11/29 12:26:45;;;;;;;2.83;1.60;;;14.30;99.90;;;;;;5082581;28;20061;-60
2021/11/29 12:29:22;;;;;;;5.07;1.35;;;14.40;99.90;;;;;;5099394;28;20044;-60
2021/11/29 12:32:18;;;;;;;3.70;1.30;;;14.40;99.90;;;;;;5117915;28;20092;-60
2021/11/29 12:37:15;;;;;;;6.05;2.25;;;14.40;99.90;;;;;;5117452;28;20039;-61
2021/11/29 12:39:48;;;;;;;2.90;1.38;;;14.40;99.90;;;;;;5099396;28;20100;-62
2021/11/29 12:42:19;;;;;;;3.83;1.30;;;14.40;99.90;;;;;;5082658;28;20048;-61
2021/11/29 12:44:54;;;;;;;3.97;1.50;;;14.40;99.90;;;;;;5082970;28;20055;-62
2021/11/29 12:47:45;;;;;;;4.43;1.40;;;14.60;99.90;;;;;;5116816;28;20078;-61
2021/11/29 12:50:33;;;;;;;4.10;1.73;;;14.70;99.90;;;;;;5099620;28;20502;-62
2021/11/29 12:53:15;;;;;;;2.92;1.40;;;14.90;99.90;;;;;;5117422;28;20053;-62
2021/11/29 12:55:51;;;;;;;7.10;1.83;;;14.90;99.60;;;;;;5117393;28;20040;-62
2021/11/29 12:58:23;;;;;;;3.20;1.35;;;15.00;99.90;;;;;;5082176;28;20036;-62
2021/11/29 13:01:11;;;;;;;2.67;1.40;;;15.10;99.60;;;;;;5082487;28;20055;-62
2021/11/29 13:03:50;;;;;;;2.03;1.38;;;15.10;99.60;;;;;;5099344;28;20152;-62
2021/11/29 13:06:23;;;;;;;3.72;2.70;;;15.30;99.90;;;;;;5082280;28;20070;-62